createdAt,value
2018-02-19T00:00:20.815Z,10.50
2018-02-19T00:00:55.252Z,9.00
2018-02-19T00:01:28.929Z,10.45
2018-02-19T00:02:02.599Z,15.55
2018-02-19T00:02:37.026Z,11.27
2018-02-19T00:03:10.682Z,13.02
2018-02-19T00:03:44.343Z,11.38
2018-02-19T00:04:17.995Z,9.32
2018-02-19T00:04:51.470Z,11.90
2018-02-19T00:05:25.932Z,14.27
2018-02-19T00:05:59.614Z,10.75
2018-02-19T00:06:33.297Z,9.73
2018-02-19T00:07:06.950Z,9.82
2018-02-19T00:07:41.370Z,11.80
2018-02-19T00:08:15.045Z,11.48
2018-02-19T00:08:49.484Z,12.93
2018-02-19T00:09:23.151Z,12.65
2018-02-19T00:09:56.815Z,8.82
2018-02-19T00:10:31.286Z,10.95
2018-02-19T00:11:04.960Z,11.30
2018-02-19T00:11:38.621Z,13.93
2018-02-19T00:12:13.059Z,13.77
2018-02-19T00:12:46.723Z,13.75
2018-02-19T00:13:20.388Z,9.00
2018-02-19T00:13:54.815Z,12.23
2018-02-19T00:14:28.483Z,12.63
2018-02-19T00:15:02.873Z,11.90
2018-02-19T00:15:36.564Z,13.85
2018-02-19T00:16:10.226Z,11.60
2018-02-19T00:16:43.887Z,13.25
2018-02-19T00:17:17.550Z,10.70
2018-02-19T00:17:51.798Z,9.13
2018-02-19T00:18:25.468Z,14.43
2018-02-19T00:18:59.125Z,9.77
2018-02-19T00:19:32.783Z,12.68
2018-02-19T00:20:06.438Z,12.77
2018-02-19T00:20:40.201Z,14.57
2018-02-19T00:21:14.623Z,14.57
2018-02-19T00:21:49.063Z,12.13
2018-02-19T00:22:22.555Z,15.73
2018-02-19T00:22:56.213Z,8.45
2018-02-19T00:23:29.873Z,10.57
2018-02-19T00:24:04.302Z,16.58
2018-02-19T00:24:37.958Z,13.43
2018-02-19T00:25:11.626Z,15.82
2018-02-19T00:25:45.325Z,12.00
2018-02-19T00:26:18.993Z,17.23
2018-02-19T00:26:52.654Z,12.93
2018-02-19T00:27:26.303Z,13.77
2018-02-19T00:27:59.964Z,12.63
2018-02-19T00:28:33.631Z,12.07
2018-02-19T00:29:07.306Z,15.85
2018-02-19T00:29:41.739Z,10.48
2018-02-19T00:30:15.410Z,12.52
2018-02-19T00:30:49.132Z,10.73
2018-02-19T00:31:22.800Z,16.55
2018-02-19T00:31:56.467Z,14.63
2018-02-19T00:32:30.931Z,14.50
2018-02-19T00:33:04.598Z,13.90
2018-02-19T00:33:38.253Z,13.90
2018-02-19T00:34:12.673Z,14.10
2018-02-19T00:34:46.388Z,14.13
2018-02-19T00:35:20.104Z,12.35
2018-02-19T00:35:53.802Z,12.35
2018-02-19T00:36:27.460Z,12.48
2018-02-19T00:37:01.139Z,11.32
2018-02-19T00:37:34.800Z,14.23
2018-02-19T00:38:09.240Z,13.98
2018-02-19T00:38:42.910Z,15.77
2018-02-19T00:39:16.583Z,14.23
2018-02-19T00:39:51.023Z,13.10
2018-02-19T00:40:24.688Z,15.98
2018-02-19T00:40:58.411Z,13.98
2018-02-19T00:41:32.070Z,11.73
2018-02-19T00:42:05.751Z,16.70
2018-02-19T00:42:40.249Z,16.40
2018-02-19T00:43:14.676Z,15.43
2018-02-19T00:43:48.350Z,16.35
2018-02-19T00:44:22.777Z,15.90
2018-02-19T00:44:56.446Z,12.15
2018-02-19T00:45:30.881Z,20.90
2018-02-19T00:46:04.591Z,17.90
2018-02-19T00:46:38.252Z,13.18
2018-02-19T00:47:11.918Z,17.33
2018-02-19T00:47:46.351Z,12.90
2018-02-19T00:48:20.013Z,17.40
2018-02-19T00:48:54.438Z,14.02
2018-02-19T00:49:28.122Z,15.90
2018-02-19T00:50:02.559Z,12.93
2018-02-19T00:50:36.223Z,13.18
2018-02-19T00:51:09.911Z,15.23
2018-02-19T00:51:44.342Z,12.05
2018-02-19T00:52:18.007Z,16.70
2018-02-19T00:52:52.479Z,12.60
2018-02-19T00:53:26.133Z,15.98
2018-02-19T00:53:59.791Z,16.52
2018-02-19T00:54:34.226Z,15.07
2018-02-19T00:55:07.890Z,14.60
2018-02-19T00:55:42.401Z,11.63
2018-02-19T00:56:16.087Z,12.70
2018-02-19T00:56:50.511Z,13.25
2018-02-19T00:57:24.170Z,13.77
2018-02-19T00:57:58.603Z,21.12
2018-02-19T00:58:32.268Z,15.07
2018-02-19T00:59:06.703Z,14.98
2018-02-19T00:59:40.375Z,18.02
2018-02-19T01:00:14.812Z,14.65
2018-02-19T01:00:48.474Z,12.02
2018-02-19T01:01:22.935Z,14.90
2018-02-19T01:01:56.614Z,13.40
2018-02-19T01:02:30.284Z,16.48
2018-02-19T01:03:03.958Z,16.58
2018-02-19T01:03:37.618Z,15.63
2018-02-19T01:04:11.275Z,15.90
2018-02-19T01:04:44.943Z,12.98
2018-02-19T01:05:18.615Z,16.40
2018-02-19T01:05:52.274Z,13.43
2018-02-19T01:06:25.786Z,16.15
2018-02-19T01:06:59.453Z,17.00
2018-02-19T01:07:33.902Z,15.88
2018-02-19T01:08:07.559Z,13.50
2018-02-19T01:08:41.996Z,13.02
2018-02-19T01:09:15.658Z,14.30
2018-02-19T01:09:50.094Z,14.50
2018-02-19T01:10:23.754Z,17.42
2018-02-19T01:10:58.182Z,13.55
2018-02-19T01:11:31.897Z,17.20
2018-02-19T01:12:05.571Z,15.85
2018-02-19T01:12:39.232Z,15.52
2018-02-19T01:13:13.659Z,14.48
2018-02-19T01:13:47.326Z,14.20
2018-02-19T01:14:21.768Z,14.87
2018-02-19T01:14:55.422Z,17.60
2018-02-19T01:15:30.098Z,16.92
2018-02-19T01:16:03.769Z,13.62
2018-02-19T01:16:37.463Z,15.57
2018-02-19T01:17:11.138Z,16.83
2018-02-19T01:17:44.811Z,15.18
2018-02-19T01:18:18.466Z,17.77
2018-02-19T01:18:52.138Z,15.55
2018-02-19T01:19:25.811Z,14.38
2018-02-19T01:19:59.526Z,14.90
2018-02-19T01:20:33.185Z,17.20
2018-02-19T01:21:06.862Z,21.83
2018-02-19T01:21:40.571Z,13.77
2018-02-19T01:22:14.255Z,14.77
2018-02-19T01:22:47.915Z,16.77
2018-02-19T01:23:21.602Z,15.68
2018-02-19T01:23:55.275Z,13.60
2018-02-19T01:24:29.702Z,16.05
2018-02-19T01:25:03.381Z,15.95
2018-02-19T01:25:37.825Z,15.07
2018-02-19T01:26:11.498Z,15.85
2018-02-19T01:26:45.193Z,15.65
2018-02-19T01:27:18.861Z,15.43
2018-02-19T01:27:53.302Z,16.55
2018-02-19T01:28:26.958Z,14.70
2018-02-19T01:29:00.638Z,19.83
2018-02-19T01:29:35.079Z,22.85
2018-02-19T01:30:08.753Z,17.30
2018-02-19T01:30:42.426Z,15.65
2018-02-19T01:31:16.874Z,18.30
2018-02-19T01:31:50.562Z,19.30
2018-02-19T01:32:24.228Z,20.33
2018-02-19T01:32:57.908Z,18.98
2018-02-19T01:33:32.407Z,20.10
2018-02-19T01:34:06.854Z,20.37
2018-02-19T01:34:40.532Z,13.25
2018-02-19T01:35:14.200Z,15.73
2018-02-19T01:35:48.644Z,14.98
2018-02-19T01:36:22.309Z,14.95
2018-02-19T01:36:56.022Z,15.77
2018-02-19T01:37:29.688Z,16.60
2018-02-19T01:38:03.363Z,16.90
2018-02-19T01:38:37.806Z,15.35
2018-02-19T01:39:11.483Z,19.20
2018-02-19T01:39:45.154Z,15.40
2018-02-19T01:40:19.582Z,15.65
2018-02-19T01:40:53.264Z,17.25
2018-02-19T01:41:26.922Z,15.32
2018-02-19T01:42:00.602Z,16.90
2018-02-19T01:42:34.259Z,18.20
2018-02-19T01:43:07.943Z,22.00
2018-02-19T01:43:41.604Z,15.95
2018-02-19T01:44:16.038Z,16.10
2018-02-19T01:44:49.721Z,17.23
2018-02-19T01:45:23.386Z,17.50
2018-02-19T01:45:57.823Z,17.50
2018-02-19T01:46:31.490Z,17.83
2018-02-19T01:47:05.479Z,15.68
2018-02-19T01:47:39.923Z,14.25
2018-02-19T01:48:13.600Z,18.87
2018-02-19T01:48:47.272Z,13.15
2018-02-19T01:49:20.943Z,18.10
2018-02-19T01:50:06.575Z,16.02
2018-02-19T01:50:40.245Z,15.70
2018-02-19T01:51:13.917Z,14.52
2018-02-19T01:51:47.599Z,16.62
2018-02-19T01:52:21.288Z,17.33
2018-02-19T01:52:55.731Z,14.13
2018-02-19T01:53:29.407Z,17.95
2018-02-19T01:54:03.074Z,18.95
2018-02-19T01:54:36.748Z,17.35
2018-02-19T01:55:11.224Z,17.83
2018-02-19T01:55:44.885Z,18.62
2018-02-19T01:56:18.558Z,15.43
2018-02-19T01:56:52.251Z,15.15
2018-02-19T01:57:25.947Z,16.75
2018-02-19T01:57:59.642Z,14.13
2018-02-19T01:58:33.309Z,15.65
2018-02-19T01:59:07.008Z,16.15
2018-02-19T01:59:40.676Z,16.27
2018-02-19T02:00:15.118Z,20.25
2018-02-19T02:00:48.783Z,15.40
2018-02-19T02:01:23.248Z,17.60
2018-02-19T02:01:56.910Z,15.88
2018-02-19T02:02:30.603Z,14.30
2018-02-19T02:03:04.276Z,13.60
2018-02-19T02:03:37.938Z,20.58
2018-02-19T02:04:12.379Z,16.08
2018-02-19T02:04:46.061Z,15.18
2018-02-19T02:05:19.722Z,16.23
2018-02-19T02:05:54.165Z,20.62
2018-02-19T02:06:27.848Z,17.87
2018-02-19T02:07:01.509Z,16.75
2018-02-19T02:07:35.991Z,17.08
2018-02-19T02:08:09.325Z,13.60
2018-02-19T02:08:42.992Z,11.70
2018-02-19T02:09:17.421Z,14.45
2018-02-19T02:09:51.085Z,16.62
2018-02-19T02:10:24.748Z,13.40
2018-02-19T02:10:58.500Z,14.57
2018-02-19T02:11:32.156Z,12.88
2018-02-19T02:12:06.588Z,16.48
2018-02-19T02:12:40.562Z,14.80
2018-02-19T02:13:14.990Z,17.48
2018-02-19T02:13:48.650Z,13.77
2018-02-19T02:14:22.309Z,17.08
2018-02-19T02:14:55.966Z,14.02
2018-02-19T02:15:29.645Z,13.35
2018-02-19T02:16:03.309Z,17.20
2018-02-19T02:16:37.747Z,15.93
2018-02-19T02:17:11.399Z,13.75
2018-02-19T02:17:45.077Z,14.25
2018-02-19T02:18:19.528Z,22.65
2018-02-19T02:18:53.204Z,17.70
2018-02-19T02:19:27.627Z,16.40
2018-02-19T02:20:01.302Z,14.13
2018-02-19T02:20:35.737Z,17.35
2018-02-19T02:21:09.454Z,14.82
2018-02-19T02:21:44.034Z,16.52
2018-02-19T02:22:17.690Z,14.30
2018-02-19T02:22:52.159Z,19.10
2018-02-19T02:23:25.820Z,14.87
2018-02-19T02:23:59.481Z,17.52
2018-02-19T02:24:33.962Z,14.82
2018-02-19T02:25:07.638Z,14.35
2018-02-19T02:25:41.726Z,17.35
2018-02-19T02:26:15.390Z,19.15
2018-02-19T02:26:49.071Z,14.90
2018-02-19T02:27:22.738Z,15.60
2018-02-19T02:27:56.419Z,15.85
2018-02-19T02:28:30.083Z,13.68
2018-02-19T02:29:03.769Z,16.30
2018-02-19T02:29:37.434Z,17.23
2018-02-19T02:30:11.106Z,16.52
2018-02-19T02:30:44.766Z,17.95
2018-02-19T02:31:18.424Z,19.17
2018-02-19T02:31:52.115Z,17.33
2018-02-19T02:32:25.792Z,16.08
2018-02-19T02:32:59.491Z,15.30
2018-02-19T02:33:33.179Z,15.90
2018-02-19T02:34:06.833Z,14.38
2018-02-19T02:34:41.265Z,15.73
2018-02-19T02:35:14.931Z,14.23
2018-02-19T02:35:48.587Z,17.85
2018-02-19T02:36:22.259Z,16.40
2018-02-19T02:36:55.934Z,15.85
2018-02-19T02:37:29.610Z,15.02
2018-02-19T02:38:02.975Z,18.17
2018-02-19T02:38:36.630Z,13.45
2018-02-19T02:39:10.292Z,14.93
2018-02-19T02:39:43.957Z,16.95
2018-02-19T02:40:17.454Z,15.13
2018-02-19T02:40:51.126Z,18.45
2018-02-19T02:41:24.782Z,15.80
2018-02-19T02:41:59.204Z,13.60
2018-02-19T02:42:33.642Z,14.95
2018-02-19T02:43:07.342Z,23.12
2018-02-19T02:43:41.036Z,19.10
2018-02-19T02:44:14.720Z,17.90
2018-02-19T02:44:48.386Z,17.23
2018-02-19T02:45:22.058Z,16.33
2018-02-19T02:45:56.515Z,18.40
2018-02-19T02:46:30.197Z,17.70
2018-02-19T02:47:03.896Z,16.85
2018-02-19T02:47:37.566Z,16.48
2018-02-19T02:48:11.265Z,17.35
2018-02-19T02:48:44.929Z,16.00
2018-02-19T02:49:18.592Z,16.33
2018-02-19T02:49:53.027Z,15.57
2018-02-19T02:50:26.701Z,17.87
2018-02-19T02:51:01.164Z,22.52
2018-02-19T02:51:34.843Z,15.73
2018-02-19T02:52:08.499Z,14.85
2018-02-19T02:52:42.175Z,15.30
2018-02-19T02:53:16.648Z,19.42
2018-02-19T02:53:50.315Z,17.23
2018-02-19T02:54:23.992Z,16.20
2018-02-19T02:54:57.654Z,14.38
2018-02-19T02:55:31.328Z,16.52
2018-02-19T02:56:05.763Z,20.75
2018-02-19T02:56:39.447Z,16.85
2018-02-19T02:57:13.126Z,16.17
2018-02-19T02:57:47.576Z,14.95
2018-02-19T02:58:20.931Z,15.68
2018-02-19T02:58:54.627Z,16.35
2018-02-19T02:59:28.298Z,15.38
2018-02-19T03:00:02.746Z,16.17
2018-02-19T03:00:36.433Z,14.45
2018-02-19T03:01:10.103Z,14.82
2018-02-19T03:01:43.786Z,15.63
2018-02-19T03:02:17.465Z,20.17
2018-02-19T03:02:51.910Z,15.57
2018-02-19T03:03:25.437Z,20.90
2018-02-19T03:03:59.126Z,14.02
2018-02-19T03:04:32.807Z,19.20
2018-02-19T03:05:06.471Z,16.67
2018-02-19T03:05:40.155Z,16.62
2018-02-19T03:06:13.819Z,19.83
2018-02-19T03:06:47.499Z,19.70
2018-02-19T03:07:20.855Z,17.95
2018-02-19T03:07:55.289Z,17.00
2018-02-19T03:08:28.983Z,17.87
2018-02-19T03:09:02.664Z,19.08
2018-02-19T03:09:37.114Z,19.80
2018-02-19T03:10:10.796Z,16.95
2018-02-19T03:10:44.464Z,17.75
2018-02-19T03:11:18.143Z,16.90
2018-02-19T03:11:52.581Z,17.75
2018-02-19T03:12:26.250Z,16.35
2018-02-19T03:12:59.930Z,16.83
2018-02-19T03:13:33.925Z,18.10
2018-02-19T03:14:07.599Z,15.43
2018-02-19T03:14:42.026Z,20.90
2018-02-19T03:15:16.460Z,20.00
2018-02-19T03:15:50.137Z,16.55
2018-02-19T03:16:23.814Z,19.62
2018-02-19T03:16:57.499Z,18.17
2018-02-19T03:17:31.171Z,18.92
2018-02-19T03:18:05.608Z,21.02
2018-02-19T03:18:39.326Z,17.27
2018-02-19T03:19:12.994Z,20.37
2018-02-19T03:19:46.659Z,18.62
2018-02-19T03:20:21.090Z,16.37
2018-02-19T03:20:54.751Z,23.40
2018-02-19T03:21:29.205Z,15.70
2018-02-19T03:22:02.884Z,18.17
2018-02-19T03:22:36.578Z,17.23
2018-02-19T03:23:10.271Z,16.75
2018-02-19T03:23:43.972Z,17.80
2018-02-19T03:24:17.651Z,19.87
2018-02-19T03:24:51.362Z,18.85
2018-02-19T03:25:25.091Z,18.70
2018-02-19T03:25:59.558Z,17.15
2018-02-19T03:26:33.228Z,17.75
2018-02-19T03:27:06.716Z,16.87
2018-02-19T03:27:40.391Z,18.23
2018-02-19T03:28:14.053Z,18.45
2018-02-19T03:28:48.846Z,17.27
2018-02-19T03:29:22.520Z,16.25
2018-02-19T03:29:56.186Z,16.83
2018-02-19T03:30:29.859Z,16.17
2018-02-19T03:31:03.524Z,17.12
2018-02-19T03:31:37.984Z,17.02
2018-02-19T03:32:11.665Z,21.42
2018-02-19T03:32:45.350Z,19.58
2018-02-19T03:33:19.017Z,15.65
2018-02-19T03:33:52.995Z,21.80
2018-02-19T03:34:27.455Z,18.65
2018-02-19T03:35:01.148Z,17.00
2018-02-19T03:35:34.834Z,22.95
2018-02-19T03:36:08.515Z,16.35
2018-02-19T03:36:42.189Z,15.25
2018-02-19T03:37:15.854Z,17.62
2018-02-19T03:37:50.286Z,15.35
2018-02-19T03:38:23.966Z,18.83
2018-02-19T03:38:57.658Z,16.35
2018-02-19T03:39:31.333Z,18.17
2018-02-19T03:40:05.787Z,16.95
2018-02-19T03:40:39.473Z,16.75
2018-02-19T03:41:13.152Z,17.25
2018-02-19T03:41:46.832Z,19.45
2018-02-19T03:42:20.502Z,17.25
2018-02-19T03:42:54.950Z,19.30
2018-02-19T03:43:28.630Z,24.73
2018-02-19T03:44:02.330Z,20.60
2018-02-19T03:44:36.038Z,17.35
2018-02-19T03:45:09.394Z,13.38
2018-02-19T03:45:44.015Z,16.40
2018-02-19T03:46:17.703Z,17.95
2018-02-19T03:46:51.393Z,15.48
2018-02-19T03:47:25.066Z,16.08
2018-02-19T03:47:58.731Z,16.23
2018-02-19T03:48:33.178Z,17.80
2018-02-19T03:49:06.883Z,22.23
2018-02-19T03:49:40.556Z,21.17
2018-02-19T03:50:14.220Z,18.50
2018-02-19T03:50:47.899Z,18.48
2018-02-19T03:51:22.342Z,17.67
2018-02-19T03:51:56.005Z,17.10
2018-02-19T03:52:32.602Z,17.20
2018-02-19T03:53:06.278Z,23.17
2018-02-19T03:53:39.942Z,22.37
2018-02-19T03:54:13.658Z,15.32
2018-02-19T03:54:47.323Z,15.60
2018-02-19T03:55:20.994Z,16.85
2018-02-19T03:55:55.434Z,22.58
2018-02-19T03:56:29.118Z,21.10
2018-02-19T03:57:02.778Z,19.50
2018-02-19T03:57:37.219Z,16.92
2018-02-19T03:58:10.911Z,15.15
2018-02-19T03:58:44.585Z,19.45
2018-02-19T03:59:18.303Z,18.20
2018-02-19T03:59:51.986Z,17.33
2018-02-19T04:00:25.682Z,19.25
2018-02-19T04:00:59.374Z,16.77
2018-02-19T04:01:33.033Z,16.75
2018-02-19T04:02:06.706Z,18.87
2018-02-19T04:02:41.124Z,18.62
2018-02-19T04:03:14.802Z,14.35
2018-02-19T04:03:49.305Z,17.37
2018-02-19T04:04:23.162Z,18.27
2018-02-19T04:04:56.868Z,18.95
2018-02-19T04:05:30.531Z,17.00
2018-02-19T04:06:04.250Z,15.70
2018-02-19T04:06:37.938Z,16.17
2018-02-19T04:07:11.617Z,20.20
2018-02-19T04:07:45.300Z,18.62
2018-02-19T04:08:18.974Z,14.65
2018-02-19T04:08:52.640Z,15.35
2018-02-19T04:09:26.343Z,18.05
2018-02-19T04:09:59.850Z,20.70
2018-02-19T04:10:33.734Z,19.15
2018-02-19T04:11:10.421Z,19.08
2018-02-19T04:11:44.095Z,17.08
2018-02-19T04:12:17.779Z,18.45
2018-02-19T04:12:51.453Z,15.90
2018-02-19T04:13:25.134Z,19.67
2018-02-19T04:13:58.811Z,20.45
2018-02-19T04:14:33.632Z,16.58
2018-02-19T04:15:07.325Z,18.33
2018-02-19T04:15:41.003Z,30.95
2018-02-19T04:16:15.464Z,16.33
2018-02-19T04:16:49.139Z,14.43
2018-02-19T04:17:22.815Z,20.83
2018-02-19T04:17:56.483Z,19.48
2018-02-19T04:18:30.927Z,18.35
2018-02-19T04:19:04.614Z,16.33
2018-02-19T04:19:38.612Z,16.87
2018-02-19T04:20:12.286Z,18.08
2018-02-19T04:20:45.961Z,18.87
2018-02-19T04:21:19.650Z,17.10
2018-02-19T04:21:54.128Z,16.27
2018-02-19T04:22:27.803Z,17.05
2018-02-19T04:23:01.471Z,15.50
2018-02-19T04:23:35.157Z,20.02
2018-02-19T04:24:08.483Z,20.85
2018-02-19T04:24:41.842Z,16.55
2018-02-19T04:25:15.517Z,16.10
2018-02-19T04:25:49.185Z,13.70
2018-02-19T04:26:22.859Z,17.60
2018-02-19T04:26:56.537Z,16.73
2018-02-19T04:27:30.214Z,18.95
2018-02-19T04:28:03.886Z,18.20
2018-02-19T04:28:37.554Z,18.20
2018-02-19T04:29:11.229Z,16.75
2018-02-19T04:29:45.393Z,17.73
2018-02-19T04:30:19.505Z,17.90
2018-02-19T04:30:53.193Z,18.92
2018-02-19T04:31:27.628Z,17.37
2018-02-19T04:32:01.306Z,16.27
2018-02-19T04:32:34.969Z,16.95
2018-02-19T04:33:09.410Z,15.52
2018-02-19T04:33:43.093Z,18.10
2018-02-19T04:34:16.756Z,14.27
2018-02-19T04:34:51.586Z,17.80
2018-02-19T04:35:25.348Z,19.70
2018-02-19T04:35:59.027Z,19.98
2018-02-19T04:36:32.694Z,17.23
2018-02-19T04:37:06.361Z,16.30
2018-02-19T04:37:40.031Z,15.77
2018-02-19T04:38:14.469Z,15.48
2018-02-19T04:38:48.130Z,15.63
2018-02-19T04:39:21.810Z,17.73
2018-02-19T04:39:56.274Z,13.93
2018-02-19T04:40:29.944Z,14.57
2018-02-19T04:41:03.438Z,19.42
2018-02-19T04:41:37.176Z,19.23
2018-02-19T04:42:11.613Z,17.20
2018-02-19T04:42:45.098Z,16.87
2018-02-19T04:43:18.583Z,16.48
2018-02-19T04:43:52.067Z,15.93
2018-02-19T04:44:35.432Z,18.23
2018-02-19T04:46:21.186Z,20.92
2018-02-19T04:47:04.762Z,16.70
2018-02-19T04:47:39.187Z,14.30
2018-02-19T04:48:12.862Z,14.50
2018-02-19T04:48:47.310Z,17.20
2018-02-19T04:49:21.001Z,16.42
2018-02-19T04:49:54.689Z,14.77
2018-02-19T04:50:28.417Z,14.40
2018-02-19T04:51:02.097Z,16.42
2018-02-19T04:51:35.769Z,16.52
2018-02-19T04:52:09.463Z,15.57
2018-02-19T04:52:43.137Z,18.50
2018-02-19T04:53:16.809Z,20.98
2018-02-19T04:53:50.473Z,19.00
2018-02-19T04:54:24.983Z,21.80
2018-02-19T04:54:59.419Z,17.50
2018-02-19T04:55:33.116Z,18.00
2018-02-19T04:56:06.831Z,17.65
2018-02-19T04:56:41.415Z,21.10
2018-02-19T04:57:15.094Z,16.95
2018-02-19T04:57:48.758Z,18.17
2018-02-19T04:58:23.194Z,17.27
2018-02-19T04:58:56.871Z,17.20
2018-02-19T04:59:31.118Z,14.65
2018-02-19T05:00:04.289Z,16.75
2018-02-19T05:00:37.982Z,17.27
2018-02-19T05:01:11.482Z,19.65
2018-02-19T05:01:45.158Z,18.20
2018-02-19T05:02:18.841Z,15.95
2018-02-19T05:02:52.510Z,17.65
2018-02-19T05:03:26.171Z,15.40
2018-02-19T05:04:00.617Z,20.52
2018-02-19T05:04:34.297Z,18.02
2018-02-19T05:05:07.999Z,17.45
2018-02-19T05:05:41.710Z,17.58
2018-02-19T05:06:15.385Z,15.60
2018-02-19T05:06:49.058Z,21.37
2018-02-19T05:07:22.727Z,17.58
2018-02-19T05:07:57.161Z,14.43
2018-02-19T05:08:30.839Z,19.08
2018-02-19T05:09:03.680Z,21.45
2018-02-19T05:09:37.339Z,15.90
2018-02-19T05:10:11.008Z,15.80
2018-02-19T05:10:44.714Z,14.95
2018-02-19T05:11:18.420Z,17.87
2018-02-19T05:11:52.094Z,20.23
2018-02-19T05:12:25.774Z,20.58
2018-02-19T05:12:59.458Z,23.15
2018-02-19T05:13:33.129Z,16.65
2018-02-19T05:14:06.806Z,15.35
2018-02-19T05:14:40.476Z,18.85
2018-02-19T05:15:14.912Z,20.95
2018-02-19T05:15:48.606Z,19.73
2018-02-19T05:16:22.282Z,17.33
2018-02-19T05:16:55.944Z,17.02
2018-02-19T05:17:29.622Z,20.23
2018-02-19T05:18:03.321Z,20.52
2018-02-19T05:18:37.015Z,16.75
2018-02-19T05:19:10.690Z,17.42
2018-02-19T05:19:44.380Z,17.67
2018-02-19T05:20:18.061Z,22.10
2018-02-19T05:20:51.775Z,20.17
2018-02-19T05:21:25.460Z,15.05
2018-02-19T05:21:59.126Z,19.70
2018-02-19T05:22:32.803Z,16.37
2018-02-19T05:23:06.483Z,19.58
2018-02-19T05:23:40.142Z,18.27
2018-02-19T05:24:14.583Z,19.50
2018-02-19T05:24:48.269Z,18.35
2018-02-19T05:25:21.944Z,15.68
2018-02-19T05:25:55.317Z,17.80
2018-02-19T05:26:28.998Z,16.45
2018-02-19T05:27:03.442Z,15.85
2018-02-19T05:27:37.111Z,22.50
2018-02-19T05:28:10.777Z,24.63
2018-02-19T05:28:45.228Z,15.55
2018-02-19T05:29:18.900Z,17.70
2018-02-19T05:29:52.579Z,17.17
2018-02-19T05:30:26.262Z,16.92
2018-02-19T05:31:00.736Z,16.95
2018-02-19T05:31:34.406Z,20.73
2018-02-19T05:32:07.420Z,20.60
2018-02-19T05:32:41.850Z,20.05
2018-02-19T05:33:15.546Z,20.83
2018-02-19T05:33:49.238Z,20.98
2018-02-19T05:34:22.919Z,17.52
2018-02-19T05:34:56.403Z,19.48
2018-02-19T05:35:30.120Z,20.90
2018-02-19T05:36:03.813Z,18.12
2018-02-19T05:36:37.499Z,17.83
2018-02-19T05:37:11.170Z,23.50
2018-02-19T05:37:44.851Z,18.60
2018-02-19T05:38:19.289Z,19.60
2018-02-19T05:38:52.959Z,17.40
2018-02-19T05:39:26.637Z,20.75
2018-02-19T05:40:00.313Z,16.40
2018-02-19T05:40:34.740Z,19.45
2018-02-19T05:41:08.450Z,25.92
2018-02-19T05:41:42.124Z,20.42
2018-02-19T05:42:15.798Z,17.77
2018-02-19T05:42:50.250Z,20.73
2018-02-19T05:43:23.932Z,22.33
2018-02-19T05:43:57.633Z,21.83
2018-02-19T05:44:31.322Z,19.50
2018-02-19T05:45:05.013Z,25.73
2018-02-19T05:45:38.693Z,21.42
2018-02-19T05:46:12.382Z,20.92
2018-02-19T05:46:46.044Z,20.08
2018-02-19T05:47:19.726Z,18.90
2018-02-19T05:47:54.169Z,21.83
2018-02-19T05:48:27.847Z,26.52
2018-02-19T05:49:01.519Z,20.40
2018-02-19T05:49:35.211Z,18.83
2018-02-19T05:50:08.909Z,21.83
2018-02-19T05:50:42.588Z,24.73
2018-02-19T05:51:16.277Z,21.62
2018-02-19T05:51:49.968Z,19.27
2018-02-19T05:52:23.652Z,19.10
2018-02-19T05:52:58.097Z,17.80
2018-02-19T05:53:31.792Z,21.98
2018-02-19T05:54:05.476Z,19.10
2018-02-19T05:54:39.166Z,19.75
2018-02-19T05:55:12.856Z,19.92
2018-02-19T05:55:46.203Z,21.00
2018-02-19T05:56:20.768Z,20.15
2018-02-19T05:56:54.496Z,22.75
2018-02-19T05:57:28.966Z,17.95
2018-02-19T05:58:02.639Z,19.65
2018-02-19T05:58:36.314Z,19.67
2018-02-19T05:59:09.978Z,20.58
2018-02-19T05:59:44.421Z,18.37
2018-02-19T06:00:18.111Z,20.85
2018-02-19T06:00:51.786Z,23.55
2018-02-19T06:01:25.492Z,20.10
2018-02-19T06:01:59.203Z,20.52
2018-02-19T06:02:32.910Z,19.50
2018-02-19T06:03:06.586Z,20.23
2018-02-19T06:03:40.268Z,20.83
2018-02-19T06:04:13.938Z,22.00
2018-02-19T06:04:47.610Z,19.85
2018-02-19T06:05:20.942Z,20.90
2018-02-19T06:05:54.621Z,24.55
2018-02-19T06:06:28.311Z,24.40
2018-02-19T06:07:01.978Z,27.13
2018-02-19T06:07:35.658Z,22.23
2018-02-19T06:08:09.334Z,24.77
2018-02-19T06:08:43.004Z,22.95
2018-02-19T06:09:17.451Z,21.08
2018-02-19T06:09:51.145Z,18.67
2018-02-19T06:10:24.819Z,23.87
2018-02-19T06:10:58.497Z,21.80
2018-02-19T06:11:32.194Z,22.15
2018-02-19T06:12:05.908Z,20.52
2018-02-19T06:12:39.609Z,26.40
2018-02-19T06:13:13.290Z,21.10
2018-02-19T06:13:46.966Z,22.60
2018-02-19T06:14:20.660Z,21.05
2018-02-19T06:14:54.389Z,20.67
2018-02-19T06:15:28.087Z,20.60
2018-02-19T06:16:01.771Z,22.25
2018-02-19T06:16:35.751Z,21.77
2018-02-19T06:17:09.436Z,22.98
2018-02-19T06:17:43.127Z,22.02
2018-02-19T06:18:16.794Z,26.73
2018-02-19T06:18:50.474Z,22.92
2018-02-19T06:19:24.135Z,21.80
2018-02-19T06:19:58.586Z,24.63
2018-02-19T06:20:32.270Z,21.15
2018-02-19T06:21:05.945Z,21.98
2018-02-19T06:21:39.671Z,20.15
2018-02-19T06:22:13.363Z,24.75
2018-02-19T06:22:47.026Z,25.85
2018-02-19T06:23:20.727Z,21.70
2018-02-19T06:23:54.398Z,20.65
2018-02-19T06:24:29.010Z,27.73
2018-02-19T06:25:02.703Z,20.45
2018-02-19T06:25:36.476Z,25.37
2018-02-19T06:26:10.918Z,22.73
2018-02-19T06:26:44.620Z,22.05
2018-02-19T06:27:18.310Z,19.83
2018-02-19T06:27:51.998Z,21.08
2018-02-19T06:28:25.680Z,18.90
2018-02-19T06:28:59.354Z,21.77
2018-02-19T06:29:33.030Z,24.80
2018-02-19T06:30:06.047Z,21.58
2018-02-19T06:30:39.739Z,24.48
2018-02-19T06:31:13.412Z,21.20
2018-02-19T06:31:47.115Z,21.45
2018-02-19T06:32:20.805Z,23.30
2018-02-19T06:32:54.481Z,21.60
2018-02-19T06:33:28.170Z,24.67
2018-02-19T06:34:01.860Z,22.75
2018-02-19T06:34:35.244Z,21.52
2018-02-19T06:35:08.914Z,20.23
2018-02-19T06:35:42.602Z,22.13
2018-02-19T06:36:16.291Z,21.95
2018-02-19T06:36:49.667Z,26.30
2018-02-19T06:37:23.357Z,20.02
2018-02-19T06:37:57.052Z,20.92
2018-02-19T06:38:30.734Z,22.20
2018-02-19T06:39:03.581Z,17.62
2018-02-19T06:39:38.010Z,23.25
2018-02-19T06:40:11.702Z,21.83
2018-02-19T06:40:45.393Z,20.95
2018-02-19T06:41:19.853Z,25.35
2018-02-19T06:41:53.566Z,22.20
2018-02-19T06:42:27.998Z,22.52
2018-02-19T06:43:01.686Z,22.25
2018-02-19T06:43:35.365Z,26.45
2018-02-19T06:44:10.135Z,22.92
2018-02-19T06:44:43.817Z,23.40
2018-02-19T06:45:17.490Z,21.02
2018-02-19T06:45:51.166Z,20.67
2018-02-19T06:46:24.841Z,22.80
2018-02-19T06:46:58.563Z,23.60
2018-02-19T06:47:32.231Z,23.60
2018-02-19T06:48:06.885Z,22.33
2018-02-19T06:48:40.555Z,22.13
2018-02-19T06:49:14.232Z,23.30
2018-02-19T06:49:47.910Z,23.92
2018-02-19T06:50:21.587Z,19.50
2018-02-19T06:50:56.030Z,20.25
2018-02-19T06:51:29.704Z,22.48
2018-02-19T06:52:03.220Z,21.95
2018-02-19T06:52:36.958Z,28.98
2018-02-19T06:53:11.416Z,24.45
2018-02-19T06:53:45.087Z,27.23
2018-02-19T06:54:18.768Z,22.33
2018-02-19T06:54:52.440Z,26.23
2018-02-19T06:55:26.881Z,24.30
2018-02-19T06:56:00.553Z,22.75
2018-02-19T06:56:34.234Z,19.60
2018-02-19T06:57:07.914Z,21.55
2018-02-19T06:57:42.355Z,25.50
2018-02-19T06:58:16.023Z,21.27
2018-02-19T06:58:49.702Z,22.75
2018-02-19T06:59:24.139Z,21.30
2018-02-19T06:59:57.807Z,19.50
2018-02-19T07:00:31.490Z,24.25
2018-02-19T07:01:05.944Z,25.90
2018-02-19T07:01:39.449Z,20.73
2018-02-19T07:02:13.170Z,22.70
2018-02-19T07:02:47.294Z,22.83
2018-02-19T07:03:20.969Z,22.23
2018-02-19T07:03:54.653Z,19.65
2018-02-19T07:04:28.337Z,22.65
2018-02-19T07:05:02.775Z,20.05
2018-02-19T07:05:36.436Z,20.02
2018-02-19T07:06:10.875Z,22.83
2018-02-19T07:06:44.568Z,17.40
2018-02-19T07:07:18.283Z,21.48
2018-02-19T07:07:51.963Z,17.60
2018-02-19T07:08:25.445Z,20.88
2018-02-19T07:08:59.115Z,24.63
2018-02-19T07:09:32.782Z,19.20
2018-02-19T07:10:07.219Z,25.95
2018-02-19T07:10:40.905Z,22.85
2018-02-19T07:11:14.578Z,19.62
2018-02-19T07:11:48.257Z,19.42
2018-02-19T07:12:21.966Z,18.52
2018-02-19T07:12:55.626Z,20.48
2018-02-19T07:13:30.074Z,16.08
2018-02-19T07:14:03.770Z,21.05
2018-02-19T07:14:37.447Z,17.87
2018-02-19T07:15:11.129Z,21.42
2018-02-19T07:15:44.829Z,20.67
2018-02-19T07:16:18.481Z,23.92
2018-02-19T07:16:52.927Z,21.87
2018-02-19T07:17:26.634Z,18.85